Terminal Aerodrome Forecast
Issued by NWS

Home | Current Version | Previous Version | Graphics & Text | Print | Product List | Glossary On
Versions: 1 2 3 4 5 6 7 8 9 10 11 12 13 14 15 16 17 18
000
FTUS43 KMPX 160500
TAFRWF
TAF
KRWF 160533Z 1606/1706 11014G22KT P6SM OVC090
     FM161100 11019G25KT P6SM VCSH OVC050
     FM161500 09012G18KT P6SM -RASN OVC025
     FM161900 05012G20KT 2SM -SN OVC010
     FM162200 02013G21KT 3/4SM -SN VV008
     FM170300 34013G22KT 5SM -SN OVC015=

USA.gov is the U.S. government's official web portal to all federal, state and local government web resources and services.